sensor_id;sensor_type;location;lat;lon;timestamp;P1;durP1;ratioP1;P2;durP2;ratioP2
23119;SDS011;11729;50.836;4.330;2023-07-24T00:00:33;3.60;;;3.50;;
23119;SDS011;11729;50.836;4.330;2023-07-24T00:03:00;3.58;;;3.47;;
23119;SDS011;11729;50.836;4.330;2023-07-24T00:05:28;3.45;;;3.35;;
23119;SDS011;11729;50.836;4.330;2023-07-24T00:07:54;3.67;;;3.58;;
23119;SDS011;11729;50.836;4.330;2023-07-24T00:10:19;3.40;;;3.30;;
23119;SDS011;11729;50.836;4.330;2023-07-24T00:12:45;3.55;;;3.45;;
23119;SDS011;11729;50.836;4.330;2023-07-24T00:15:11;3.58;;;3.47;;
23119;SDS011;11729;50.836;4.330;2023-07-24T00:17:36;3.47;;;3.38;;
23119;SDS011;11729;50.836;4.330;2023-07-24T00:20:02;3.50;;;3.40;;
23119;SDS011;11729;50.836;4.330;2023-07-24T00:22:28;4.35;;;3.95;;
23119;SDS011;11729;50.836;4.330;2023-07-24T00:24:53;3.60;;;3.50;;
23119;SDS011;11729;50.836;4.330;2023-07-24T00:27:19;4.32;;;4.13;;
23119;SDS011;11729;50.836;4.330;2023-07-24T00:29:44;3.58;;;3.47;;
23119;SDS011;11729;50.836;4.330;2023-07-24T00:32:10;3.60;;;3.50;;
23119;SDS011;11729;50.836;4.330;2023-07-24T00:34:35;3.50;;;3.40;;
23119;SDS011;11729;50.836;4.330;2023-07-24T00:37:01;3.55;;;3.45;;
23119;SDS011;11729;50.836;4.330;2023-07-24T00:39:26;3.47;;;3.38;;
23119;SDS011;11729;50.836;4.330;2023-07-24T00:41:54;3.95;;;3.75;;
23119;SDS011;11729;50.836;4.330;2023-07-24T00:44:20;3.50;;;3.40;;
23119;SDS011;11729;50.836;4.330;2023-07-24T00:46:46;3.40;;;3.30;;
23119;SDS011;11729;50.836;4.330;2023-07-24T00:49:11;3.33;;;3.22;;
23119;SDS011;11729;50.836;4.330;2023-07-24T00:51:38;4.22;;;3.97;;
23119;SDS011;11729;50.836;4.330;2023-07-24T00:54:04;3.60;;;3.50;;
23119;SDS011;11729;50.836;4.330;2023-07-24T00:56:31;3.65;;;3.55;;
23119;SDS011;11729;50.836;4.330;2023-07-24T00:58:58;4.07;;;3.83;;
23119;SDS011;11729;50.836;4.330;2023-07-24T01:01:25;4.55;;;4.35;;
23119;SDS011;11729;50.836;4.330;2023-07-24T01:03:51;3.92;;;3.72;;
23119;SDS011;11729;50.836;4.330;2023-07-24T01:06:17;3.40;;;3.30;;
23119;SDS011;11729;50.836;4.330;2023-07-24T01:08:42;3.50;;;3.40;;
23119;SDS011;11729;50.836;4.330;2023-07-24T01:16:47;3.50;;;3.40;;
23119;SDS011;11729;50.836;4.330;2023-07-24T01:22:01;5.10;;;4.60;;
23119;SDS011;11729;50.836;4.330;2023-07-24T01:27:26;3.50;;;3.40;;
23119;SDS011;11729;50.836;4.330;2023-07-24T01:29:52;3.50;;;3.40;;
23119;SDS011;11729;50.836;4.330;2023-07-24T01:32:18;16.35;;;4.03;;
23119;SDS011;11729;50.836;4.330;2023-07-24T01:34:44;3.50;;;3.40;;
23119;SDS011;11729;50.836;4.330;2023-07-24T01:37:10;3.40;;;3.30;;
23119;SDS011;11729;50.836;4.330;2023-07-24T01:39:38;5.35;;;4.95;;
23119;SDS011;11729;50.836;4.330;2023-07-24T01:42:09;4.00;;;3.80;;
23119;SDS011;11729;50.836;4.330;2023-07-24T01:44:36;4.03;;;3.83;;
23119;SDS011;11729;50.836;4.330;2023-07-24T01:47:01;3.50;;;3.40;;
23119;SDS011;11729;50.836;4.330;2023-07-24T01:49:27;3.58;;;3.47;;
23119;SDS011;11729;50.836;4.330;2023-07-24T01:51:52;3.58;;;3.47;;
23119;SDS011;11729;50.836;4.330;2023-07-24T01:54:18;3.30;;;3.20;;
23119;SDS011;11729;50.836;4.330;2023-07-24T01:56:43;4.40;;;4.20;;
23119;SDS011;11729;50.836;4.330;2023-07-24T01:59:09;3.50;;;3.40;;
23119;SDS011;11729;50.836;4.330;2023-07-24T02:01:35;3.50;;;3.40;;
23119;SDS011;11729;50.836;4.330;2023-07-24T02:04:01;5.18;;;4.75;;
23119;SDS011;11729;50.836;4.330;2023-07-24T02:06:27;3.40;;;3.30;;
23119;SDS011;11729;50.836;4.330;2023-07-24T02:08:52;3.40;;;3.30;;
23119;SDS011;11729;50.836;4.330;2023-07-24T02:11:18;3.50;;;3.40;;
23119;SDS011;11729;50.836;4.330;2023-07-24T02:13:44;3.40;;;3.30;;
23119;SDS011;11729;50.836;4.330;2023-07-24T02:16:10;3.42;;;3.33;;
23119;SDS011;11729;50.836;4.330;2023-07-24T02:18:37;3.60;;;3.50;;
23119;SDS011;11729;50.836;4.330;2023-07-24T02:21:04;3.50;;;3.40;;
23119;SDS011;11729;50.836;4.330;2023-07-24T02:23:29;3.50;;;3.40;;
23119;SDS011;11729;50.836;4.330;2023-07-24T02:25:55;3.40;;;3.30;;
23119;SDS011;11729;50.836;4.330;2023-07-24T02:28:20;3.45;;;3.35;;
23119;SDS011;11729;50.836;4.330;2023-07-24T02:30:47;3.60;;;3.50;;
23119;SDS011;11729;50.836;4.330;2023-07-24T02:33:13;3.50;;;3.40;;
23119;SDS011;11729;50.836;4.330;2023-07-24T02:35:40;3.50;;;3.40;;
23119;SDS011;11729;50.836;4.330;2023-07-24T02:38:06;4.13;;;3.85;;
23119;SDS011;11729;50.836;4.330;2023-07-24T02:40:32;3.40;;;3.30;;
23119;SDS011;11729;50.836;4.330;2023-07-24T02:42:59;3.60;;;3.50;;
23119;SDS011;11729;50.836;4.330;2023-07-24T02:45:24;3.50;;;3.40;;
23119;SDS011;11729;50.836;4.330;2023-07-24T02:47:50;3.40;;;3.30;;
23119;SDS011;11729;50.836;4.330;2023-07-24T02:50:17;3.33;;;3.22;;
23119;SDS011;11729;50.836;4.330;2023-07-24T02:52:42;3.60;;;3.50;;
23119;SDS011;11729;50.836;4.330;2023-07-24T02:55:08;3.50;;;3.40;;
23119;SDS011;11729;50.836;4.330;2023-07-24T02:57:33;3.67;;;3.58;;
23119;SDS011;11729;50.836;4.330;2023-07-24T02:59:59;3.40;;;3.30;;
23119;SDS011;11729;50.836;4.330;2023-07-24T03:02:25;3.60;;;3.50;;
23119;SDS011;11729;50.836;4.330;2023-07-24T03:04:50;3.60;;;3.50;;
23119;SDS011;11729;50.836;4.330;2023-07-24T03:07:16;3.75;;;3.60;;
23119;SDS011;11729;50.836;4.330;2023-07-24T03:09:41;5.63;;;5.30;;
23119;SDS011;11729;50.836;4.330;2023-07-24T03:12:07;3.40;;;3.30;;
23119;SDS011;11729;50.836;4.330;2023-07-24T03:14:33;3.40;;;3.30;;
23119;SDS011;11729;50.836;4.330;2023-07-24T03:16:58;3.50;;;3.40;;
23119;SDS011;11729;50.836;4.330;2023-07-24T03:19:25;3.40;;;3.30;;
23119;SDS011;11729;50.836;4.330;2023-07-24T03:21:51;3.30;;;3.20;;
23119;SDS011;11729;50.836;4.330;2023-07-24T03:24:17;3.45;;;3.35;;
23119;SDS011;11729;50.836;4.330;2023-07-24T03:26:43;3.55;;;3.42;;
23119;SDS011;11729;50.836;4.330;2023-07-24T03:29:08;3.45;;;3.35;;
23119;SDS011;11729;50.836;4.330;2023-07-24T03:31:34;3.60;;;3.50;;
23119;SDS011;11729;50.836;4.330;2023-07-24T03:33:59;3.60;;;3.50;;
23119;SDS011;11729;50.836;4.330;2023-07-24T03:36:25;3.50;;;3.40;;
23119;SDS011;11729;50.836;4.330;2023-07-24T03:38:51;3.60;;;3.50;;
23119;SDS011;11729;50.836;4.330;2023-07-24T03:41:16;3.50;;;3.40;;
23119;SDS011;11729;50.836;4.330;2023-07-24T03:43:44;3.50;;;3.40;;
23119;SDS011;11729;50.836;4.330;2023-07-24T03:46:09;3.90;;;3.70;;
23119;SDS011;11729;50.836;4.330;2023-07-24T03:48:35;3.60;;;3.50;;
23119;SDS011;11729;50.836;4.330;2023-07-24T03:51:01;3.50;;;3.40;;
23119;SDS011;11729;50.836;4.330;2023-07-24T03:53:27;3.45;;;3.35;;
23119;SDS011;11729;50.836;4.330;2023-07-24T03:55:53;3.40;;;3.30;;
23119;SDS011;11729;50.836;4.330;2023-07-24T03:58:19;3.70;;;3.60;;
23119;SDS011;11729;50.836;4.330;2023-07-24T04:00:45;3.70;;;3.60;;
23119;SDS011;11729;50.836;4.330;2023-07-24T04:03:11;3.50;;;3.40;;
23119;SDS011;11729;50.836;4.330;2023-07-24T04:05:37;3.60;;;3.50;;
23119;SDS011;11729;50.836;4.330;2023-07-24T04:08:02;3.60;;;3.50;;
23119;SDS011;11729;50.836;4.330;2023-07-24T04:10:28;3.58;;;3.47;;
23119;SDS011;11729;50.836;4.330;2023-07-24T04:12:55;4.05;;;3.85;;
23119;SDS011;11729;50.836;4.330;2023-07-24T04:15:21;3.60;;;3.50;;
23119;SDS011;11729;50.836;4.330;2023-07-24T04:17:47;3.58;;;3.47;;
23119;SDS011;11729;50.836;4.330;2023-07-24T04:20:13;3.60;;;3.50;;
23119;SDS011;11729;50.836;4.330;2023-07-24T04:22:40;3.72;;;3.63;;
23119;SDS011;11729;50.836;4.330;2023-07-24T04:25:06;3.50;;;3.40;;
23119;SDS011;11729;50.836;4.330;2023-07-24T04:27:32;3.60;;;3.50;;
23119;SDS011;11729;50.836;4.330;2023-07-24T04:29:57;3.58;;;3.47;;
23119;SDS011;11729;50.836;4.330;2023-07-24T04:32:23;3.42;;;3.33;;
23119;SDS011;11729;50.836;4.330;2023-07-24T04:34:50;3.60;;;3.50;;
23119;SDS011;11729;50.836;4.330;2023-07-24T04:37:16;3.60;;;3.50;;
23119;SDS011;11729;50.836;4.330;2023-07-24T04:39:42;3.50;;;3.40;;
23119;SDS011;11729;50.836;4.330;2023-07-24T04:42:07;3.50;;;3.40;;
23119;SDS011;11729;50.836;4.330;2023-07-24T04:44:33;3.50;;;3.40;;
23119;SDS011;11729;50.836;4.330;2023-07-24T04:46:58;3.60;;;3.50;;
23119;SDS011;11729;50.836;4.330;2023-07-24T04:49:24;3.80;;;3.70;;
23119;SDS011;11729;50.836;4.330;2023-07-24T04:51:50;4.18;;;3.97;;
23119;SDS011;11729;50.836;4.330;2023-07-24T04:54:16;3.60;;;3.50;;
23119;SDS011;11729;50.836;4.330;2023-07-24T04:56:42;3.65;;;3.55;;
23119;SDS011;11729;50.836;4.330;2023-07-24T04:59:08;3.50;;;3.40;;
23119;SDS011;11729;50.836;4.330;2023-07-24T05:01:33;3.40;;;3.30;;
23119;SDS011;11729;50.836;4.330;2023-07-24T05:03:59;3.50;;;3.40;;
23119;SDS011;11729;50.836;4.330;2023-07-24T05:06:24;3.50;;;3.40;;
23119;SDS011;11729;50.836;4.330;2023-07-24T05:08:52;3.50;;;3.40;;
23119;SDS011;11729;50.836;4.330;2023-07-24T05:11:18;3.58;;;3.47;;
23119;SDS011;11729;50.836;4.330;2023-07-24T05:13:45;3.40;;;3.30;;
23119;SDS011;11729;50.836;4.330;2023-07-24T05:16:10;3.50;;;3.40;;
23119;SDS011;11729;50.836;4.330;2023-07-24T05:18:36;3.50;;;3.40;;
23119;SDS011;11729;50.836;4.330;2023-07-24T05:21:01;3.40;;;3.30;;
23119;SDS011;11729;50.836;4.330;2023-07-24T05:23:27;3.50;;;3.40;;
23119;SDS011;11729;50.836;4.330;2023-07-24T05:25:59;3.40;;;3.30;;
23119;SDS011;11729;50.836;4.330;2023-07-24T05:28:26;3.40;;;3.30;;
23119;SDS011;11729;50.836;4.330;2023-07-24T05:30:52;3.60;;;3.50;;
23119;SDS011;11729;50.836;4.330;2023-07-24T05:33:18;3.50;;;3.40;;
23119;SDS011;11729;50.836;4.330;2023-07-24T05:35:43;3.60;;;3.50;;
23119;SDS011;11729;50.836;4.330;2023-07-24T05:38:09;3.40;;;3.30;;
23119;SDS011;11729;50.836;4.330;2023-07-24T05:40:35;3.40;;;3.30;;
23119;SDS011;11729;50.836;4.330;2023-07-24T05:43:00;3.40;;;3.30;;
23119;SDS011;11729;50.836;4.330;2023-07-24T05:45:27;3.58;;;3.47;;
23119;SDS011;11729;50.836;4.330;2023-07-24T05:47:53;3.60;;;3.50;;
23119;SDS011;11729;50.836;4.330;2023-07-24T05:50:19;3.40;;;3.30;;
23119;SDS011;11729;50.836;4.330;2023-07-24T05:52:44;3.60;;;3.50;;
23119;SDS011;11729;50.836;4.330;2023-07-24T05:55:10;3.40;;;3.30;;
23119;SDS011;11729;50.836;4.330;2023-07-24T05:57:36;3.30;;;3.20;;
23119;SDS011;11729;50.836;4.330;2023-07-24T06:00:06;3.40;;;3.30;;
23119;SDS011;11729;50.836;4.330;2023-07-24T06:02:32;3.40;;;3.30;;
23119;SDS011;11729;50.836;4.330;2023-07-24T06:04:58;3.40;;;3.30;;
23119;SDS011;11729;50.836;4.330;2023-07-24T06:07:23;3.45;;;3.35;;
23119;SDS011;11729;50.836;4.330;2023-07-24T06:09:49;3.45;;;3.35;;
23119;SDS011;11729;50.836;4.330;2023-07-24T06:12:15;3.40;;;3.30;;
23119;SDS011;11729;50.836;4.330;2023-07-24T06:14:40;3.40;;;3.30;;
23119;SDS011;11729;50.836;4.330;2023-07-24T06:17:06;4.32;;;4.13;;
23119;SDS011;11729;50.836;4.330;2023-07-24T06:19:32;3.50;;;3.40;;
23119;SDS011;11729;50.836;4.330;2023-07-24T06:21:57;3.60;;;3.50;;
23119;SDS011;11729;50.836;4.330;2023-07-24T06:24:23;3.65;;;3.55;;
23119;SDS011;11729;50.836;4.330;2023-07-24T06:26:50;3.60;;;3.50;;
23119;SDS011;11729;50.836;4.330;2023-07-24T06:29:15;3.50;;;3.40;;
23119;SDS011;11729;50.836;4.330;2023-07-24T06:31:41;3.50;;;3.40;;
23119;SDS011;11729;50.836;4.330;2023-07-24T06:34:07;3.47;;;3.38;;
23119;SDS011;11729;50.836;4.330;2023-07-24T06:36:32;3.25;;;3.15;;
23119;SDS011;11729;50.836;4.330;2023-07-24T06:38:58;3.33;;;3.22;;
23119;SDS011;11729;50.836;4.330;2023-07-24T06:41:25;3.20;;;3.10;;
23119;SDS011;11729;50.836;4.330;2023-07-24T06:43:51;3.25;;;3.15;;
23119;SDS011;11729;50.836;4.330;2023-07-24T06:46:16;3.20;;;3.10;;
23119;SDS011;11729;50.836;4.330;2023-07-24T06:48:42;3.20;;;3.10;;
23119;SDS011;11729;50.836;4.330;2023-07-24T06:51:08;3.22;;;3.13;;
23119;SDS011;11729;50.836;4.330;2023-07-24T06:53:33;3.28;;;3.17;;
23119;SDS011;11729;50.836;4.330;2023-07-24T06:55:59;3.10;;;3.00;;
23119;SDS011;11729;50.836;4.330;2023-07-24T06:58:25;3.10;;;3.00;;
23119;SDS011;11729;50.836;4.330;2023-07-24T07:00:51;3.10;;;3.00;;
23119;SDS011;11729;50.836;4.330;2023-07-24T07:03:16;3.10;;;3.00;;
23119;SDS011;11729;50.836;4.330;2023-07-24T07:05:43;3.00;;;2.90;;
23119;SDS011;11729;50.836;4.330;2023-07-24T07:08:08;3.10;;;3.00;;
23119;SDS011;11729;50.836;4.330;2023-07-24T07:10:34;3.13;;;3.03;;
23119;SDS011;11729;50.836;4.330;2023-07-24T07:13:00;3.13;;;3.03;;
23119;SDS011;11729;50.836;4.330;2023-07-24T07:15:25;6.28;;;5.55;;
23119;SDS011;11729;50.836;4.330;2023-07-24T07:17:51;6.95;;;5.95;;
23119;SDS011;11729;50.836;4.330;2023-07-24T07:20:16;13.30;;;6.15;;
23119;SDS011;11729;50.836;4.330;2023-07-24T07:22:42;7.65;;;6.07;;
23119;SDS011;11729;50.836;4.330;2023-07-24T07:25:08;6.43;;;5.82;;
23119;SDS011;11729;50.836;4.330;2023-07-24T07:27:33;8.95;;;6.20;;
23119;SDS011;11729;50.836;4.330;2023-07-24T07:29:59;7.72;;;5.97;;
23119;SDS011;11729;50.836;4.330;2023-07-24T07:32:25;5.95;;;5.55;;
23119;SDS011;11729;50.836;4.330;2023-07-24T07:34:52;6.13;;;5.63;;
23119;SDS011;11729;50.836;4.330;2023-07-24T07:37:20;6.28;;;5.78;;
23119;SDS011;11729;50.836;4.330;2023-07-24T07:39:46;6.20;;;5.60;;
23119;SDS011;11729;50.836;4.330;2023-07-24T07:42:11;6.03;;;5.40;;
23119;SDS011;11729;50.836;4.330;2023-07-24T07:44:37;5.50;;;5.10;;
23119;SDS011;11729;50.836;4.330;2023-07-24T07:47:03;5.57;;;5.07;;
23119;SDS011;11729;50.836;4.330;2023-07-24T07:49:29;6.47;;;5.43;;
23119;SDS011;11729;50.836;4.330;2023-07-24T07:51:54;5.93;;;5.32;;
23119;SDS011;11729;50.836;4.330;2023-07-24T07:54:20;5.50;;;5.10;;
23119;SDS011;11729;50.836;4.330;2023-07-24T07:56:45;10.98;;;5.80;;
23119;SDS011;11729;50.836;4.330;2023-07-24T07:59:11;5.85;;;5.10;;
23119;SDS011;11729;50.836;4.330;2023-07-24T08:01:37;5.82;;;5.30;;
23119;SDS011;11729;50.836;4.330;2023-07-24T08:04:04;6.60;;;5.00;;
23119;SDS011;11729;50.836;4.330;2023-07-24T08:06:30;5.85;;;5.35;;
23119;SDS011;11729;50.836;4.330;2023-07-24T08:08:55;7.28;;;5.00;;
23119;SDS011;11729;50.836;4.330;2023-07-24T08:11:21;5.65;;;5.15;;
23119;SDS011;11729;50.836;4.330;2023-07-24T08:13:46;6.10;;;5.53;;
23119;SDS011;11729;50.836;4.330;2023-07-24T08:16:13;6.47;;;5.88;;
23119;SDS011;11729;50.836;4.330;2023-07-24T08:18:44;6.13;;;5.53;;
23119;SDS011;11729;50.836;4.330;2023-07-24T08:21:10;7.78;;;6.15;;
23119;SDS011;11729;50.836;4.330;2023-07-24T08:23:36;5.88;;;5.43;;
23119;SDS011;11729;50.836;4.330;2023-07-24T08:26:02;7.10;;;6.13;;
23119;SDS011;11729;50.836;4.330;2023-07-24T08:28:27;6.20;;;5.70;;
23119;SDS011;11729;50.836;4.330;2023-07-24T08:30:57;6.60;;;6.00;;
23119;SDS011;11729;50.836;4.330;2023-07-24T08:33:24;6.68;;;6.07;;
23119;SDS011;11729;50.836;4.330;2023-07-24T08:36:00;6.97;;;6.28;;
23119;SDS011;11729;50.836;4.330;2023-07-24T08:38:28;7.10;;;6.53;;
23119;SDS011;11729;50.836;4.330;2023-07-24T08:41:00;6.97;;;6.20;;
23119;SDS011;11729;50.836;4.330;2023-07-24T08:43:33;6.70;;;5.95;;
23119;SDS011;11729;50.836;4.330;2023-07-24T08:46:00;7.28;;;6.47;;
23119;SDS011;11729;50.836;4.330;2023-07-24T08:48:26;13.13;;;6.60;;
23119;SDS011;11729;50.836;4.330;2023-07-24T08:50:55;9.93;;;6.70;;
23119;SDS011;11729;50.836;4.330;2023-07-24T08:53:22;7.50;;;6.18;;
23119;SDS011;11729;50.836;4.330;2023-07-24T08:55:49;6.43;;;5.90;;
23119;SDS011;11729;50.836;4.330;2023-07-24T08:58:15;6.63;;;6.03;;
23119;SDS011;11729;50.836;4.330;2023-07-24T09:00:41;6.70;;;6.07;;
23119;SDS011;11729;50.836;4.330;2023-07-24T09:03:07;6.80;;;6.20;;
23119;SDS011;11729;50.836;4.330;2023-07-24T09:05:33;6.68;;;6.00;;
23119;SDS011;11729;50.836;4.330;2023-07-24T09:07:58;9.93;;;6.30;;
23119;SDS011;11729;50.836;4.330;2023-07-24T09:10:27;7.45;;;6.50;;
23119;SDS011;11729;50.836;4.330;2023-07-24T09:12:53;10.30;;;6.20;;
23119;SDS011;11729;50.836;4.330;2023-07-24T09:15:21;7.20;;;6.40;;
23119;SDS011;11729;50.836;4.330;2023-07-24T09:17:50;7.00;;;6.15;;
23119;SDS011;11729;50.836;4.330;2023-07-24T09:20:17;6.55;;;5.90;;
23119;SDS011;11729;50.836;4.330;2023-07-24T09:22:53;6.47;;;5.95;;
23119;SDS011;11729;50.836;4.330;2023-07-24T09:25:32;7.03;;;6.43;;
23119;SDS011;11729;50.836;4.330;2023-07-24T09:27:58;7.25;;;6.55;;
23119;SDS011;11729;50.836;4.330;2023-07-24T09:30:24;9.20;;;6.20;;
23119;SDS011;11729;50.836;4.330;2023-07-24T09:32:53;8.43;;;6.57;;
23119;SDS011;11729;50.836;4.330;2023-07-24T09:35:19;7.13;;;6.47;;
23119;SDS011;11729;50.836;4.330;2023-07-24T09:38:00;7.53;;;6.80;;
23119;SDS011;11729;50.836;4.330;2023-07-24T09:40:37;8.68;;;6.85;;
23119;SDS011;11729;50.836;4.330;2023-07-24T09:43:27;14.90;;;7.22;;
23119;SDS011;11729;50.836;4.330;2023-07-24T09:45:52;10.65;;;7.35;;
23119;SDS011;11729;50.836;4.330;2023-07-24T09:48:19;7.63;;;6.88;;
23119;SDS011;11729;50.836;4.330;2023-07-24T09:50:48;9.63;;;7.32;;
23119;SDS011;11729;50.836;4.330;2023-07-24T09:53:20;8.07;;;6.70;;
23119;SDS011;11729;50.836;4.330;2023-07-24T09:55:51;8.30;;;7.50;;
23119;SDS011;11729;50.836;4.330;2023-07-24T09:58:21;8.10;;;7.40;;
23119;SDS011;11729;50.836;4.330;2023-07-24T10:00:48;7.45;;;6.75;;
23119;SDS011;11729;50.836;4.330;2023-07-24T10:03:14;10.68;;;7.38;;
23119;SDS011;11729;50.836;4.330;2023-07-24T10:05:41;7.95;;;6.78;;
23119;SDS011;11729;50.836;4.330;2023-07-24T10:08:09;9.18;;;6.50;;
23119;SDS011;11729;50.836;4.330;2023-07-24T10:10:35;7.55;;;6.20;;
23119;SDS011;11729;50.836;4.330;2023-07-24T10:13:03;9.40;;;6.50;;
23119;SDS011;11729;50.836;4.330;2023-07-24T10:15:29;6.30;;;5.80;;
23119;SDS011;11729;50.836;4.330;2023-07-24T10:18:04;8.10;;;6.38;;
23119;SDS011;11729;50.836;4.330;2023-07-24T10:20:59;6.40;;;5.80;;
23119;SDS011;11729;50.836;4.330;2023-07-24T10:23:27;6.20;;;5.70;;
23119;SDS011;11729;50.836;4.330;2023-07-24T10:25:52;6.38;;;5.85;;
23119;SDS011;11729;50.836;4.330;2023-07-24T10:28:18;6.20;;;5.70;;
23119;SDS011;11729;50.836;4.330;2023-07-24T10:30:44;6.78;;;6.18;;
23119;SDS011;11729;50.836;4.330;2023-07-24T10:33:20;7.90;;;5.82;;
23119;SDS011;11729;50.836;4.330;2023-07-24T10:36:03;8.20;;;6.00;;
23119;SDS011;11729;50.836;4.330;2023-07-24T10:38:39;6.38;;;5.80;;
23119;SDS011;11729;50.836;4.330;2023-07-24T10:41:06;6.60;;;5.90;;
23119;SDS011;11729;50.836;4.330;2023-07-24T10:46:12;6.35;;;5.80;;
23119;SDS011;11729;50.836;4.330;2023-07-24T10:48:41;6.18;;;5.57;;
23119;SDS011;11729;50.836;4.330;2023-07-24T10:51:09;6.43;;;5.93;;
23119;SDS011;11729;50.836;4.330;2023-07-24T10:53:35;6.55;;;5.95;;
23119;SDS011;11729;50.836;4.330;2023-07-24T10:56:02;6.38;;;5.88;;
23119;SDS011;11729;50.836;4.330;2023-07-24T10:58:32;6.30;;;5.80;;
23119;SDS011;11729;50.836;4.330;2023-07-24T11:00:58;6.50;;;5.90;;
23119;SDS011;11729;50.836;4.330;2023-07-24T11:03:24;6.60;;;6.00;;
23119;SDS011;11729;50.836;4.330;2023-07-24T11:05:52;5.82;;;5.35;;
23119;SDS011;11729;50.836;4.330;2023-07-24T11:08:20;6.50;;;5.82;;
23119;SDS011;11729;50.836;4.330;2023-07-24T11:10:49;12.15;;;6.72;;
23119;SDS011;11729;50.836;4.330;2023-07-24T11:13:17;8.75;;;6.82;;
23119;SDS011;11729;50.836;4.330;2023-07-24T11:15:51;13.38;;;8.73;;
23119;SDS011;11729;50.836;4.330;2023-07-24T11:18:17;6.53;;;5.90;;
23119;SDS011;11729;50.836;4.330;2023-07-24T11:20:48;7.20;;;6.50;;
23119;SDS011;11729;50.836;4.330;2023-07-24T11:23:18;7.15;;;6.43;;
23119;SDS011;11729;50.836;4.330;2023-07-24T11:25:44;6.88;;;6.20;;
23119;SDS011;11729;50.836;4.330;2023-07-24T11:28:10;7.28;;;6.57;;
23119;SDS011;11729;50.836;4.330;2023-07-24T11:30:37;7.28;;;6.60;;
23119;SDS011;11729;50.836;4.330;2023-07-24T11:33:04;7.15;;;6.38;;
23119;SDS011;11729;50.836;4.330;2023-07-24T11:35:32;12.27;;;7.40;;
23119;SDS011;11729;50.836;4.330;2023-07-24T11:37:58;7.05;;;6.20;;
23119;SDS011;11729;50.836;4.330;2023-07-24T11:40:34;7.00;;;6.30;;
23119;SDS011;11729;50.836;4.330;2023-07-24T11:43:01;6.78;;;6.10;;
23119;SDS011;11729;50.836;4.330;2023-07-24T11:45:27;6.85;;;6.25;;
23119;SDS011;11729;50.836;4.330;2023-07-24T11:47:53;8.57;;;6.38;;
23119;SDS011;11729;50.836;4.330;2023-07-24T11:50:20;6.78;;;6.18;;
23119;SDS011;11729;50.836;4.330;2023-07-24T11:52:49;7.83;;;6.40;;
23119;SDS011;11729;50.836;4.330;2023-07-24T11:55:17;6.85;;;6.15;;
23119;SDS011;11729;50.836;4.330;2023-07-24T11:57:58;6.57;;;5.97;;
23119;SDS011;11729;50.836;4.330;2023-07-24T12:00:25;6.38;;;5.78;;
23119;SDS011;11729;50.836;4.330;2023-07-24T12:02:51;6.53;;;5.82;;
23119;SDS011;11729;50.836;4.330;2023-07-24T12:05:17;6.38;;;5.75;;
23119;SDS011;11729;50.836;4.330;2023-07-24T12:07:43;8.35;;;5.93;;
23119;SDS011;11729;50.836;4.330;2023-07-24T12:10:10;5.38;;;4.97;;
23119;SDS011;11729;50.836;4.330;2023-07-24T12:12:44;5.85;;;5.38;;
23119;SDS011;11729;50.836;4.330;2023-07-24T12:15:14;6.18;;;5.55;;
23119;SDS011;11729;50.836;4.330;2023-07-24T12:17:40;7.80;;;5.80;;
23119;SDS011;11729;50.836;4.330;2023-07-24T12:20:06;6.40;;;5.80;;
23119;SDS011;11729;50.836;4.330;2023-07-24T12:22:34;7.50;;;5.40;;
23119;SDS011;11729;50.836;4.330;2023-07-24T12:25:00;8.57;;;5.43;;
23119;SDS011;11729;50.836;4.330;2023-07-24T12:27:27;9.30;;;6.05;;
23119;SDS011;11729;50.836;4.330;2023-07-24T12:29:52;6.47;;;5.80;;
23119;SDS011;11729;50.836;4.330;2023-07-24T12:32:18;6.78;;;5.90;;
23119;SDS011;11729;50.836;4.330;2023-07-24T12:34:46;6.22;;;5.72;;
23119;SDS011;11729;50.836;4.330;2023-07-24T12:37:12;7.03;;;5.90;;
23119;SDS011;11729;50.836;4.330;2023-07-24T12:39:38;6.20;;;5.60;;
23119;SDS011;11729;50.836;4.330;2023-07-24T12:42:04;6.93;;;6.22;;
23119;SDS011;11729;50.836;4.330;2023-07-24T12:44:31;6.80;;;6.10;;
23119;SDS011;11729;50.836;4.330;2023-07-24T12:46:57;6.47;;;5.88;;
23119;SDS011;11729;50.836;4.330;2023-07-24T12:49:22;8.07;;;6.47;;
23119;SDS011;11729;50.836;4.330;2023-07-24T12:51:48;7.30;;;6.60;;
23119;SDS011;11729;50.836;4.330;2023-07-24T12:54:13;9.13;;;6.28;;
23119;SDS011;11729;50.836;4.330;2023-07-24T12:56:39;7.55;;;6.60;;
23119;SDS011;11729;50.836;4.330;2023-07-24T12:59:05;10.32;;;7.47;;
23119;SDS011;11729;50.836;4.330;2023-07-24T13:01:31;8.82;;;6.95;;
23119;SDS011;11729;50.836;4.330;2023-07-24T13:03:57;9.23;;;6.93;;
23119;SDS011;11729;50.836;4.330;2023-07-24T13:06:23;8.05;;;7.32;;
23119;SDS011;11729;50.836;4.330;2023-07-24T13:08:49;7.82;;;7.03;;
23119;SDS011;11729;50.836;4.330;2023-07-24T13:11:15;11.02;;;7.90;;
23119;SDS011;11729;50.836;4.330;2023-07-24T13:13:40;9.38;;;6.80;;
23119;SDS011;11729;50.836;4.330;2023-07-24T13:16:06;12.43;;;7.35;;
23119;SDS011;11729;50.836;4.330;2023-07-24T13:18:32;9.63;;;7.05;;
23119;SDS011;11729;50.836;4.330;2023-07-24T13:20:59;12.27;;;7.65;;
23119;SDS011;11729;50.836;4.330;2023-07-24T13:23:24;7.10;;;6.40;;
23119;SDS011;11729;50.836;4.330;2023-07-24T13:25:51;8.00;;;6.68;;
23119;SDS011;11729;50.836;4.330;2023-07-24T13:28:17;7.30;;;6.55;;
23119;SDS011;11729;50.836;4.330;2023-07-24T13:30:43;7.43;;;6.75;;
23119;SDS011;11729;50.836;4.330;2023-07-24T13:33:09;8.30;;;6.55;;
23119;SDS011;11729;50.836;4.330;2023-07-24T13:35:34;8.07;;;6.57;;
23119;SDS011;11729;50.836;4.330;2023-07-24T13:38:00;7.57;;;6.60;;
23119;SDS011;11729;50.836;4.330;2023-07-24T13:40:26;7.60;;;6.65;;
23119;SDS011;11729;50.836;4.330;2023-07-24T13:42:51;7.32;;;6.32;;
23119;SDS011;11729;50.836;4.330;2023-07-24T13:45:17;6.90;;;6.22;;
23119;SDS011;11729;50.836;4.330;2023-07-24T13:47:43;6.80;;;6.13;;
23119;SDS011;11729;50.836;4.330;2023-07-24T13:50:08;8.90;;;6.38;;
23119;SDS011;11729;50.836;4.330;2023-07-24T13:52:34;7.60;;;6.50;;
23119;SDS011;11729;50.836;4.330;2023-07-24T13:55:00;6.85;;;6.15;;
23119;SDS011;11729;50.836;4.330;2023-07-24T13:57:25;9.27;;;6.18;;
23119;SDS011;11729;50.836;4.330;2023-07-24T13:59:51;7.28;;;5.97;;
23119;SDS011;11729;50.836;4.330;2023-07-24T14:02:17;7.22;;;5.85;;
23119;SDS011;11729;50.836;4.330;2023-07-24T14:04:43;6.88;;;5.30;;
23119;SDS011;11729;50.836;4.330;2023-07-24T14:07:09;6.05;;;5.50;;
23119;SDS011;11729;50.836;4.330;2023-07-24T14:09:35;9.25;;;5.57;;
23119;SDS011;11729;50.836;4.330;2023-07-24T14:12:00;6.13;;;5.53;;
23119;SDS011;11729;50.836;4.330;2023-07-24T14:14:26;5.75;;;5.30;;
23119;SDS011;11729;50.836;4.330;2023-07-24T14:16:52;6.18;;;5.57;;
23119;SDS011;11729;50.836;4.330;2023-07-24T14:19:17;9.02;;;5.75;;
23119;SDS011;11729;50.836;4.330;2023-07-24T14:21:44;9.20;;;5.93;;
23119;SDS011;11729;50.836;4.330;2023-07-24T14:24:09;6.28;;;5.68;;
23119;SDS011;11729;50.836;4.330;2023-07-24T14:26:35;6.43;;;5.75;;
23119;SDS011;11729;50.836;4.330;2023-07-24T14:29:04;6.78;;;5.80;;
23119;SDS011;11729;50.836;4.330;2023-07-24T14:31:29;6.85;;;6.15;;
23119;SDS011;11729;50.836;4.330;2023-07-24T14:33:55;8.38;;;6.47;;
23119;SDS011;11729;50.836;4.330;2023-07-24T14:36:21;6.38;;;5.70;;
23119;SDS011;11729;50.836;4.330;2023-07-24T14:38:47;5.75;;;5.25;;
23119;SDS011;11729;50.836;4.330;2023-07-24T14:41:12;7.03;;;6.10;;
23119;SDS011;11729;50.836;4.330;2023-07-24T14:43:40;6.03;;;5.53;;
23119;SDS011;11729;50.836;4.330;2023-07-24T14:46:06;7.03;;;5.55;;
23119;SDS011;11729;50.836;4.330;2023-07-24T14:48:31;6.38;;;5.78;;
23119;SDS011;11729;50.836;4.330;2023-07-24T14:50:57;10.15;;;5.70;;
23119;SDS011;11729;50.836;4.330;2023-07-24T14:53:23;6.57;;;5.25;;
23119;SDS011;11729;50.836;4.330;2023-07-24T14:55:48;6.80;;;5.90;;
23119;SDS011;11729;50.836;4.330;2023-07-24T14:58:15;6.38;;;5.78;;